Denver, New York
Current Conditions -  °F | °C
As of 8:15 AM on Tuesday 21 Oct 2014 (Local Time) from KMSV Reporting Station
Overcast Overcast  
Wind Chill: 42°   Ceiling: 3100
Heat Index: 45°   Visibility: 2.5mi
Dew Point: 45°   Wind: 5mph
Humidity: 100%   Direction: 90°E
Pressure: 29.91"   Gusts: NA
Location:  42.21°N, 74.57°W
Report Text: KMSV 211215Z AUTO 09004KT 2 1/2SM SCT015 BKN031 OVC038 07/07 A2991 RMK AO1 70014
Loading
Personal Weather Stations






























Interactive Weather Map
Tropical Storm Tracking
New forecast layout! Learn more

10-Day Weather Forecast

Advertisements
Track Severe Weather on mobile